Time;durP1;ratioP1;P1;durP2;ratioP2;P2;SDS_P1;SDS_P2;PMS_P1;PMS_P2;Temp;Humidity;BMP_temperature;BMP_pressure;BME280_temperature;BME280_humidity;BME280_pressure;Samples;Min_cycle;Max_cycle;Signal;HPM_P1;HPM_P2
2021/11/21 00:01:09;;;;;;;96.07;28.65;;;;;;;6.66;100.00;101590.41;5183931;28;20030;-78
2021/11/21 00:03:40;;;;;;;93.32;29.52;;;;;;;6.64;100.00;101585.22;5184028;28;20116;-78
2021/11/21 00:06:10;;;;;;;84.40;27.65;;;;;;;6.68;100.00;101591.16;5183449;28;20084;-78
2021/11/21 00:08:41;;;;;;;85.80;26.45;;;;;;;6.66;100.00;101585.94;5181068;28;20030;-78
2021/11/21 00:11:11;;;;;;;86.93;28.58;;;;;;;6.65;100.00;101583.41;5163277;28;20716;-78
2021/11/21 00:13:42;;;;;;;86.97;27.38;;;;;;;6.65;100.00;101573.56;5174497;28;20018;-78
2021/11/21 00:16:12;;;;;;;87.97;26.42;;;;;;;6.66;100.00;101577.09;5174463;28;20018;-79
2021/11/21 00:18:43;;;;;;;87.88;26.05;;;;;;;6.68;100.00;101583.16;5183425;28;20133;-79
2021/11/21 00:21:13;;;;;;;79.85;26.58;;;;;;;6.64;100.00;101585.22;5183429;28;20512;-79
2021/11/21 00:23:44;;;;;;;87.00;27.63;;;;;;;6.62;100.00;101575.63;5183184;28;20425;-78
2021/11/21 00:26:14;;;;;;;84.13;28.38;;;;;;;6.60;100.00;101578.44;5183294;28;20032;-78
2021/11/21 00:28:45;;;;;;;76.38;25.35;;;;;;;6.61;100.00;101571.28;5183408;28;20117;-78
2021/11/21 00:31:16;;;;;;;75.28;25.05;;;;;;;6.66;100.00;101571.75;5183272;28;20034;-79
2021/11/21 00:33:47;;;;;;;76.68;25.33;;;;;;;6.66;100.00;101569.09;5183432;28;20032;-79
2021/11/21 00:36:18;;;;;;;81.25;26.60;;;;;;;6.64;100.00;101568.38;5182713;28;20018;-79
2021/11/21 00:38:48;;;;;;;84.70;26.63;;;;;;;6.62;100.00;101551.63;5182604;28;20022;-79
2021/11/21 00:41:19;;;;;;;73.32;24.67;;;;;;;6.67;100.00;101557.44;5183292;28;20042;-78
2021/11/21 00:43:49;;;;;;;78.47;25.05;;;;;;;6.63;100.00;101553.34;5183354;28;20021;-78
2021/11/21 00:46:20;;;;;;;73.13;25.13;;;;;;;6.62;100.00;101546.31;5182869;28;20511;-78
2021/11/21 00:48:50;;;;;;;85.47;26.85;;;;;;;6.60;100.00;101540.25;5182918;28;20127;-78
2021/11/21 00:51:21;;;;;;;79.03;25.13;;;;;;;6.65;100.00;101540.72;5183023;28;20500;-78
2021/11/21 00:53:54;;;;;;;81.95;25.40;;;;;;;6.61;100.00;101528.63;5182847;28;20029;-78
2021/11/21 00:56:24;;;;;;;76.35;25.27;;;;;;;6.61;100.00;101531.28;5182776;28;20050;-78
2021/11/21 00:58:55;;;;;;;79.80;25.00;;;;;;;6.55;100.00;101526.44;5182511;28;20096;-78
2021/11/21 01:01:25;;;;;;;80.40;25.60;;;;;;;6.58;100.00;101531.56;5182953;28;20107;-78
2021/11/21 01:03:56;;;;;;;77.80;24.88;;;;;;;6.58;100.00;101531.56;5182991;28;20021;-78
2021/11/21 01:06:26;;;;;;;75.05;23.10;;;;;;;6.58;100.00;101526.22;5182319;28;20033;-78
2021/11/21 01:08:57;;;;;;;79.15;22.67;;;;;;;6.66;100.00;101523.75;5182603;28;20022;-78
2021/11/21 01:11:27;;;;;;;77.50;24.65;;;;;;;6.61;100.00;101520.63;5182575;28;20026;-78
2021/11/21 01:13:58;;;;;;;80.20;23.92;;;;;;;6.63;100.00;101521.34;5175209;28;20083;-78
2021/11/21 01:16:28;;;;;;;71.60;22.77;;;;;;;6.63;100.00;101513.38;5182537;28;20029;-78
2021/11/21 01:18:59;;;;;;;74.88;23.38;;;;;;;6.64;100.00;101509.72;5182415;28;20029;-78
2021/11/21 01:21:30;;;;;;;74.75;23.52;;;;;;;6.66;100.00;101516.59;5181435;28;20030;-78
2021/11/21 01:24:00;;;;;;;69.63;21.75;;;;;;;6.65;100.00;101519.41;5182608;28;20032;-79
2021/11/21 01:26:30;;;;;;;78.88;24.67;;;;;;;6.65;100.00;101516.75;5182355;28;20030;-79
2021/11/21 01:29:01;;;;;;;77.80;23.80;;;;;;;6.62;100.00;101511.63;5182604;28;20033;-79
2021/11/21 01:31:32;;;;;;;77.85;23.30;;;;;;;6.62;100.00;101512.47;5182558;28;20029;-79
2021/11/21 01:34:02;;;;;;;68.15;22.88;;;;;;;6.66;100.00;101513.09;5182807;28;20157;-79
2021/11/21 01:36:32;;;;;;;73.35;22.33;;;;;;;6.63;100.00;101500.88;5184150;28;20040;-78
2021/11/21 01:39:04;;;;;;;66.13;22.08;;;;;;;6.65;100.00;101506.06;5184111;28;20084;-79
2021/11/21 01:41:36;;;;;;;81.47;23.63;;;;;;;6.65;100.00;101495.41;5182446;28;20041;-79
2021/11/21 01:44:11;;;;;;;75.28;21.88;;;;;;;6.64;100.00;101493.72;5182040;28;20407;-79
2021/11/21 01:46:43;;;;;;;72.03;23.55;;;;;;;6.65;100.00;101493.59;5182395;28;20030;-78
2021/11/21 01:49:13;;;;;;;74.45;21.73;;;;;;;6.63;100.00;101492.03;5185847;28;20103;-78
2021/11/21 01:51:44;;;;;;;66.75;20.35;;;;;;;6.66;100.00;101486.44;5188895;28;20489;-79
2021/11/21 01:54:16;;;;;;;62.67;19.40;;;;;;;6.71;100.00;101482.41;5188808;28;20107;-79
2021/11/21 01:56:47;;;;;;;69.55;21.65;;;;;;;6.68;100.00;101490.69;5189596;28;20072;-79
2021/11/21 01:59:18;;;;;;;74.68;21.30;;;;;;;6.67;100.00;101486.28;5188829;28;20112;-79
2021/11/21 02:01:48;;;;;;;70.03;19.98;;;;;;;6.69;100.00;101487.03;5189542;28;20033;-79
2021/11/21 02:04:19;;;;;;;63.72;21.05;;;;;;;6.67;100.00;101491.63;5189968;28;20116;-79
2021/11/21 02:07:03;;;;;;;66.88;20.88;;;;;;;6.70;100.00;101482.53;5189385;28;20030;-79
2021/11/21 02:09:33;;;;;;;56.55;19.35;;;;;;;6.68;100.00;101480.00;5179209;28;20045;-78
2021/11/21 02:12:04;;;;;;;63.88;19.45;;;;;;;6.69;100.00;101475.53;5169816;28;20034;-78
2021/11/21 02:14:35;;;;;;;67.35;21.55;;;;;;;6.71;100.00;101469.06;5181554;28;20523;-78
2021/11/21 02:17:06;;;;;;;67.53;21.70;;;;;;;6.72;100.00;101472.59;5187759;28;20114;-78
2021/11/21 02:19:36;;;;;;;59.95;20.05;;;;;;;6.70;100.00;101464.72;5188980;28;20111;-78
2021/11/21 02:22:07;;;;;;;66.07;21.10;;;;;;;6.71;100.00;101457.56;5189018;28;20041;-78
2021/11/21 02:24:39;;;;;;;68.80;19.88;;;;;;;6.70;100.00;101466.53;5188531;28;20041;-79
2021/11/21 02:27:12;;;;;;;62.95;19.33;;;;;;;6.71;100.00;101462.91;5189058;28;20034;-79
2021/11/21 02:29:43;;;;;;;61.35;19.52;;;;;;;6.73;100.00;101453.81;5189583;28;20108;-79
2021/11/21 02:32:13;;;;;;;61.97;18.95;;;;;;;6.70;100.00;101461.22;5189211;28;20132;-79
2021/11/21 02:34:44;;;;;;;59.47;19.77;;;;;;;6.69;100.00;101446.19;5185087;28;20046;-79
2021/11/21 02:37:14;;;;;;;59.35;18.77;;;;;;;6.67;100.00;101448.13;5180285;28;20033;-79
2021/11/21 02:39:45;;;;;;;61.42;18.27;;;;;;;6.65;100.00;101442.09;5190686;28;20076;-79
2021/11/21 02:42:28;;;;;;;60.75;19.40;;;;;;;6.63;100.00;101415.56;5189761;28;20030;-79
2021/11/21 02:44:58;;;;;;;63.85;19.75;;;;;;;6.63;100.00;101409.38;5190038;28;20409;-78
2021/11/21 02:47:34;;;;;;;67.95;20.77;;;;;;;6.60;100.00;101415.78;5189557;28;20095;-79
2021/11/21 02:50:11;;;;;;;57.40;19.27;;;;;;;6.57;100.00;101410.69;5188933;28;20033;-79
2021/11/21 02:52:49;;;;;;;56.65;17.98;;;;;;;6.62;100.00;101418.31;5185395;28;20034;-79
2021/11/21 02:55:26;;;;;;;61.33;19.65;;;;;;;6.64;100.00;101413.72;5170522;28;20515;-79
2021/11/21 02:57:58;;;;;;;59.33;18.38;;;;;;;6.68;100.00;101416.03;5178746;28;20026;-79
2021/11/21 03:00:39;;;;;;;58.35;19.20;;;;;;;6.68;100.00;101412.50;5188151;28;20034;-79
2021/11/21 03:03:13;;;;;;;56.33;17.00;;;;;;;6.71;100.00;101417.56;5203139;28;20053;-79
2021/11/21 03:05:58;;;;;;;61.85;19.52;;;;;;;6.68;100.00;101415.19;5188104;28;20034;-79
2021/11/21 03:08:29;;;;;;;58.67;18.88;;;;;;;6.70;100.00;101406.06;5184109;28;20477;-79
2021/11/21 03:11:17;;;;;;;60.78;18.55;;;;;;;6.66;100.00;101404.63;5165562;28;20106;-79
2021/11/21 03:13:48;;;;;;;55.45;18.20;;;;;;;6.68;100.00;101389.34;5173925;28;20054;-79
2021/11/21 03:16:19;;;;;;;60.50;18.58;;;;;;;6.65;100.00;101394.94;5185413;28;20056;-79
2021/11/21 03:18:49;;;;;;;64.15;19.40;;;;;;;6.66;100.00;101390.44;5185357;28;20022;-79
2021/11/21 03:21:20;;;;;;;61.05;19.10;;;;;;;6.66;100.00;101387.78;5185085;28;20471;-79
2021/11/21 03:23:50;;;;;;;68.38;18.55;;;;;;;6.66;100.00;101388.63;5185194;28;20030;-79
2021/11/21 03:26:21;;;;;;;66.95;19.67;;;;;;;6.65;100.00;101392.25;5185183;28;20030;-79
2021/11/21 03:28:52;;;;;;;63.63;19.52;;;;;;;6.65;100.00;101389.59;5184995;28;20089;-79
2021/11/21 03:31:22;;;;;;;61.03;18.67;;;;;;;6.66;100.00;101390.44;5182846;28;20029;-79
2021/11/21 03:33:53;;;;;;;54.53;17.63;;;;;;;6.68;100.00;101391.19;5174472;28;20480;-79
2021/11/21 03:36:23;;;;;;;60.38;18.55;;;;;;;6.70;100.00;101389.22;5184674;28;20110;-79
2021/11/21 03:38:54;;;;;;;62.05;19.83;;;;;;;6.70;100.00;101392.72;5184697;28;20477;-79
2021/11/21 03:41:25;;;;;;;65.03;19.05;;;;;;;6.70;100.00;101375.88;5184689;28;20484;-79
2021/11/21 03:43:55;;;;;;;58.28;18.48;;;;;;;6.69;100.00;101382.19;5184735;28;20022;-79
2021/11/21 03:46:26;;;;;;;64.95;19.73;;;;;;;6.71;100.00;101382.91;5171316;28;20054;-79
2021/11/21 03:48:56;;;;;;;61.55;18.90;;;;;;;6.71;100.00;101366.91;5184801;28;20025;-79
2021/11/21 03:51:27;;;;;;;64.32;19.10;;;;;;;6.72;100.00;101361.44;5184678;28;20026;-79
2021/11/21 03:53:57;;;;;;;58.58;18.90;;;;;;;6.68;100.00;101357.34;5183677;28;20030;-79
2021/11/21 03:56:28;;;;;;;68.45;20.98;;;;;;;6.67;100.00;101358.31;5183421;28;20100;-79
2021/11/21 03:58:58;;;;;;;64.22;19.38;;;;;;;6.66;100.00;101361.97;5184335;28;20030;-79
2021/11/21 04:01:29;;;;;;;62.67;19.27;;;;;;;6.66;100.00;101363.78;5184656;28;20025;-79
2021/11/21 04:04:00;;;;;;;65.40;19.05;;;;;;;6.66;100.00;101353.13;5184249;28;20087;-79
2021/11/21 04:06:31;;;;;;;69.38;18.70;;;;;;;6.65;100.00;101356.75;5183758;28;20034;-79
2021/11/21 04:09:02;;;;;;;55.35;17.88;;;;;;;6.64;100.00;101347.06;5183488;28;20026;-79
2021/11/21 04:11:33;;;;;;;64.70;21.48;;;;;;;6.66;100.00;101342.44;5184430;28;20685;-79
2021/11/21 04:14:03;;;;;;;71.72;21.27;;;;;;;6.63;100.00;101332.91;5177454;28;20663;-79
2021/11/21 04:16:34;;;;;;;64.20;19.23;;;;;;;6.64;100.00;101334.59;5184189;28;20030;-79
2021/11/21 04:19:06;;;;;;;64.45;20.83;;;;;;;6.62;100.00;101336.53;5184567;28;20022;-79
2021/11/21 04:21:37;;;;;;;57.67;18.13;;;;;;;6.67;100.00;101338.81;5184361;28;20034;-79
2021/11/21 04:24:12;;;;;;;70.30;20.92;;;;;;;6.63;100.00;101324.91;5184586;28;20049;-79
2021/11/21 04:26:44;;;;;;;64.30;19.85;;;;;;;6.66;100.00;101326.44;5184894;28;20033;-79
2021/11/21 04:29:14;;;;;;;68.88;19.98;;;;;;;6.63;100.00;101316.91;5184339;28;20022;-79
2021/11/21 04:31:45;;;;;;;64.85;19.70;;;;;;;6.63;100.00;101313.41;5184025;28;20032;-79
2021/11/21 04:34:15;;;;;;;65.75;20.02;;;;;;;6.63;100.00;101311.56;5183787;28;20061;-79
2021/11/21 04:36:46;;;;;;;63.42;19.65;;;;;;;6.65;100.00;101311.44;5184441;28;20362;-79
2021/11/21 04:39:16;;;;;;;65.68;19.95;;;;;;;6.66;100.00;101319.28;5184735;28;20025;-79
2021/11/21 04:41:47;;;;;;;71.28;19.35;;;;;;;6.68;100.00;101311.19;5184553;28;20029;-79
2021/11/21 04:44:17;;;;;;;66.60;19.70;;;;;;;6.70;100.00;101319.91;5184230;28;20022;-79
2021/11/21 04:46:49;;;;;;;63.30;19.85;;;;;;;6.70;100.00;101307.41;5184474;28;20037;-79
2021/11/21 04:49:20;;;;;;;75.97;19.77;;;;;;;6.69;100.00;101310.22;5183828;28;20028;-79
2021/11/21 04:51:50;;;;;;;76.38;25.05;;;;;;;6.71;100.00;101310.91;5182554;28;20021;-79
2021/11/21 04:54:25;;;;;;;63.88;19.88;;;;;;;6.71;100.00;101310.91;5183389;28;20024;-79
2021/11/21 04:56:56;;;;;;;61.95;19.98;;;;;;;6.70;100.00;101311.91;5183323;28;20033;-79
2021/11/21 04:59:26;;;;;;;97.15;41.00;;;;;;;6.71;100.00;101303.75;5183333;28;20400;-79
2021/11/21 05:01:57;;;;;;;64.30;22.10;;;;;;;6.70;100.00;101299.41;5183936;28;20104;-79
2021/11/21 05:04:28;;;;;;;61.20;18.77;;;;;;;6.72;100.00;101304.59;5181689;28;20026;-79
2021/11/21 05:06:59;;;;;;;71.55;20.17;;;;;;;6.73;100.00;101306.31;5181603;28;20036;-79
2021/11/21 05:09:29;;;;;;;83.10;31.58;;;;;;;6.71;100.00;101301.09;5173578;28;20030;-79
2021/11/21 05:12:00;;;;;;;64.00;20.75;;;;;;;6.71;100.00;101289.59;5163346;28;20026;-79
2021/11/21 05:14:30;;;;;;;84.20;34.67;;;;;;;6.73;100.00;101292.97;5173452;28;20550;-79
2021/11/21 05:17:01;;;;;;;68.85;26.52;;;;;;;6.75;100.00;101289.19;5181007;28;20026;-79
2021/11/21 05:19:31;;;;;;;74.63;21.27;;;;;;;6.72;100.00;101288.59;5182939;28;20116;-79
2021/11/21 05:22:02;;;;;;;67.03;20.60;;;;;;;6.72;100.00;101284.09;5183139;28;20029;-79
2021/11/21 05:24:32;;;;;;;86.20;22.90;;;;;;;6.72;100.00;101277.94;5183083;28;20062;-79
2021/11/21 05:27:03;;;;;;;84.38;21.85;;;;;;;6.69;100.00;101275.53;5171658;28;20248;-79
2021/11/21 05:29:33;;;;;;;73.50;21.00;;;;;;;6.67;100.00;101277.47;5171304;28;20034;-79
2021/11/21 05:32:04;;;;;;;88.95;29.15;;;;;;;6.68;100.00;101271.19;5182883;28;20109;-79
2021/11/21 05:34:35;;;;;;;76.55;20.65;;;;;;;6.66;100.00;101273.97;5170113;28;20030;-79
2021/11/21 05:37:06;;;;;;;84.30;24.77;;;;;;;6.70;100.00;101269.22;5182956;28;20592;-79
2021/11/21 05:39:37;;;;;;;85.60;25.23;;;;;;;6.68;100.00;101265.88;5183002;28;20101;-79
2021/11/21 05:42:07;;;;;;;84.32;20.40;;;;;;;6.66;100.00;101270.47;5183083;28;20084;-79
2021/11/21 05:44:38;;;;;;;73.85;21.52;;;;;;;6.68;100.00;101271.19;5182949;28;20545;-79
2021/11/21 05:47:08;;;;;;;86.97;22.40;;;;;;;6.67;100.00;101259.66;5182799;28;20022;-79
2021/11/21 05:49:39;;;;;;;78.07;21.33;;;;;;;6.68;100.00;101260.53;5182943;28;20018;-79
2021/11/21 05:52:10;;;;;;;86.85;22.42;;;;;;;6.70;100.00;101259.41;5181894;28;20508;-79
2021/11/21 05:54:41;;;;;;;77.13;20.90;;;;;;;6.72;100.00;101256.59;5171245;28;20060;-79
2021/11/21 05:57:13;;;;;;;92.80;23.30;;;;;;;6.69;100.00;101262.22;5184870;28;20022;-80
2021/11/21 05:59:44;;;;;;;87.82;22.73;;;;;;;6.69;100.00;101251.56;5175598;28;20019;-78
2021/11/21 06:02:14;;;;;;;92.00;24.15;;;;;;;6.67;100.00;101249.00;5180505;28;20468;-82
2021/11/21 06:04:45;;;;;;;81.95;22.48;;;;;;;6.69;100.00;101247.06;5184789;28;20034;-82
2021/11/21 06:07:15;;;;;;;90.95;22.00;;;;;;;6.71;100.00;101250.44;5184464;28;20457;-77
2021/11/21 06:09:46;;;;;;;83.05;24.05;;;;;;;6.74;100.00;101244.00;5183013;28;20519;-77
2021/11/21 06:12:16;;;;;;;88.85;24.30;;;;;;;6.72;100.00;101241.44;5182791;28;21384;-76
2021/11/21 06:14:46;;;;;;;92.07;23.58;;;;;;;6.75;100.00;101235.03;5176115;28;20484;-76
2021/11/21 06:17:17;;;;;;;87.50;21.55;;;;;;;6.75;100.00;101232.34;5185101;28;20503;-80
2021/11/21 06:19:47;;;;;;;80.78;24.08;;;;;;;6.77;100.00;101230.38;5181783;28;20025;-80
2021/11/21 06:22:19;;;;;;;80.60;22.73;;;;;;;6.80;100.00;101237.28;5182747;28;20046;-78
2021/11/21 06:24:49;;;;;;;82.35;21.92;;;;;;;6.81;100.00;101234.47;5183079;28;20033;-80
2021/11/21 06:27:20;;;;;;;81.97;22.80;;;;;;;6.79;100.00;101231.13;5182181;28;20029;-81
2021/11/21 06:29:50;;;;;;;90.88;22.98;;;;;;;6.79;100.00;101236.44;5183180;28;20524;-80
2021/11/21 06:32:21;;;;;;;548.08;157.27;;;;;;;6.78;100.00;101234.78;5184836;28;20028;-80
2021/11/21 06:34:51;;;;;;;112.03;29.83;;;;;;;6.83;100.00;101239.69;5183876;28;20053;-85
2021/11/21 06:37:22;;;;;;;100.57;29.27;;;;;;;6.85;100.00;101232.41;5175160;28;20569;-80
2021/11/21 06:39:53;;;;;;;104.50;32.05;;;;;;;6.86;100.00;101228.75;5187463;28;20030;-80
2021/11/21 06:42:23;;;;;;;93.18;23.35;;;;;;;6.84;100.00;101236.91;5187213;28;20026;-78
2021/11/21 06:44:54;;;;;;;111.22;37.47;;;;;;;6.88;100.00;101233.00;5187118;28;20377;-78
2021/11/21 06:47:24;;;;;;;89.50;23.92;;;;;;;6.85;100.00;101235.91;5187792;28;20034;-78
2021/11/21 06:49:58;;;;;;;92.20;26.48;;;;;;;6.86;100.00;101232.25;5189289;28;20022;-78
2021/11/21 06:52:30;;;;;;;101.30;34.88;;;;;;;6.87;100.00;101246.44;5186679;28;20036;-78
2021/11/21 06:55:02;;;;;;;91.90;27.38;;;;;;;6.93;100.00;101244.09;5186875;28;20022;-78
2021/11/21 06:57:34;;;;;;;83.22;24.52;;;;;;;6.90;100.00;101251.53;5186351;28;20076;-78
2021/11/21 07:00:07;;;;;;;80.00;22.17;;;;;;;6.97;100.00;101255.34;5187674;28;20106;-79
2021/11/21 07:02:37;;;;;;;69.07;18.80;;;;;;;7.10;100.00;101260.47;5175104;28;20051;-78
2021/11/21 07:05:08;;;;;;;64.22;21.88;;;;;;;7.09;100.00;101264.13;5179820;28;20033;-77
2021/11/21 07:07:40;;;;;;;71.15;21.88;;;;;;;6.98;100.00;101255.22;5166969;28;20030;-77
2021/11/21 07:10:12;;;;;;;62.53;20.25;;;;;;;6.99;100.00;101259.56;5184189;28;20109;-78
2021/11/21 07:12:43;;;;;;;62.20;18.15;;;;;;;7.02;100.00;101266.44;5180850;28;20077;-79
2021/11/21 07:15:16;;;;;;;81.40;26.67;;;;;;;6.95;100.00;101267.97;5180438;28;20412;-77
2021/11/21 07:17:49;;;;;;;69.45;20.33;;;;;;;6.97;100.00;101266.84;5184607;28;20022;-77
2021/11/21 07:20:20;;;;;;;54.00;17.08;;;;;;;7.06;100.00;101256.38;5182555;28;20026;-77
2021/11/21 07:22:52;;;;;;;57.63;17.17;;;;;;;7.11;100.00;101264.81;5183270;28;20037;-77
2021/11/21 07:25:24;;;;;;;51.95;16.85;;;;;;;7.12;100.00;101267.34;5183761;28;20117;-77
2021/11/21 07:27:55;;;;;;;51.28;16.35;;;;;;;7.16;100.00;101266.09;5184327;28;20029;-77
2021/11/21 07:30:26;;;;;;;53.67;18.10;;;;;;;7.09;100.00;101274.78;5184097;28;20489;-77
2021/11/21 07:32:56;;;;;;;45.40;15.93;;;;;;;7.09;100.00;101272.13;5183702;28;20029;-77
2021/11/21 07:35:27;;;;;;;50.45;16.25;;;;;;;7.19;100.00;101271.19;5182874;28;20549;-76
2021/11/21 07:37:57;;;;;;;45.53;16.70;;;;;;;7.18;100.00;101274.00;5184221;28;20042;-76
2021/11/21 07:40:28;;;;;;;53.17;17.45;;;;;;;7.15;100.00;101271.59;5182692;28;20022;-76
2021/11/21 07:42:59;;;;;;;54.35;18.50;;;;;;;7.12;100.00;101272.69;5182811;28;20036;-76
2021/11/21 07:45:29;;;;;;;44.20;16.13;;;;;;;7.13;100.00;101278.84;5183555;28;20511;-76
2021/11/21 07:48:00;;;;;;;55.33;18.10;;;;;;;7.11;100.00;101278.16;5184104;28;20629;-76
2021/11/21 07:50:30;;;;;;;50.70;16.33;;;;;;;7.12;100.00;101283.34;5187632;28;20053;-77
2021/11/21 07:53:01;;;;;;;48.25;16.98;;;;;;;7.15;100.00;101280.44;5188326;28;20037;-77
2021/11/21 07:55:31;;;;;;;73.57;29.50;;;;;;;7.17;100.00;101281.13;5189779;28;20105;-77
2021/11/21 07:58:02;;;;;;;61.88;21.23;;;;;;;7.14;100.00;101278.75;5184490;28;20022;-78
2021/11/21 08:00:33;;;;;;;72.75;26.85;;;;;;;7.15;100.00;101282.25;5183446;28;20444;-77
2021/11/21 08:03:03;;;;;;;55.80;20.42;;;;;;;7.16;100.00;101282.13;5183891;28;20029;-78
2021/11/21 08:05:34;;;;;;;68.40;21.85;;;;;;;7.20;100.00;101277.34;5183179;28;20052;-78
2021/11/21 08:08:05;;;;;;;64.35;18.25;;;;;;;7.22;100.00;101278.91;5183642;28;20026;-78
2021/11/21 08:10:37;;;;;;;65.32;18.95;;;;;;;7.28;100.00;101285.56;5165345;28;20540;-78
2021/11/21 08:13:08;;;;;;;63.10;18.85;;;;;;;7.33;100.00;101283.31;5165064;28;20084;-78
2021/11/21 08:15:39;;;;;;;62.85;19.60;;;;;;;7.39;100.00;101280.13;5183795;28;20018;-78
2021/11/21 08:18:09;;;;;;;67.78;20.60;;;;;;;7.44;100.00;101277.88;5187361;28;20030;-77
2021/11/21 08:20:40;;;;;;;60.35;19.90;;;;;;;7.49;100.00;101262.31;5189547;28;20273;-77
2021/11/21 08:23:11;;;;;;;77.95;19.55;;;;;;;7.53;100.00;101271.72;5190856;28;20044;-77
2021/11/21 08:25:42;;;;;;;66.75;21.75;;;;;;;7.56;100.00;101275.09;5190346;28;20026;-78
2021/11/21 08:28:13;;;;;;;66.20;21.33;;;;;;;7.62;100.00;101275.38;5188671;28;20032;-77
2021/11/21 08:30:43;;;;;;;69.82;22.42;;;;;;;7.63;100.00;101271.75;5189051;28;20026;-77
2021/11/21 08:33:14;;;;;;;68.43;19.75;;;;;;;7.61;100.00;101280.88;5187954;28;20026;-77
2021/11/21 08:35:45;;;;;;;59.03;20.30;;;;;;;7.70;100.00;101274.72;5187567;28;20024;-78
2021/11/21 08:38:15;;;;;;;59.03;20.00;;;;;;;7.70;100.00;101277.38;5184245;28;20048;-78
2021/11/21 08:40:46;;;;;;;66.65;20.70;;;;;;;7.67;100.00;101277.66;5182729;28;20032;-78
2021/11/21 08:43:16;;;;;;;55.55;19.27;;;;;;;7.62;100.00;101274.53;5191587;28;20081;-77
2021/11/21 08:45:47;;;;;;;57.10;19.02;;;;;;;7.59;100.00;101278.34;5186365;28;20044;-80
2021/11/21 08:48:17;;;;;;;58.30;19.40;;;;;;;7.59;100.00;101283.69;5185133;28;20025;-76
2021/11/21 08:50:48;;;;;;;63.22;20.00;;;;;;;7.57;100.00;101284.78;5190386;28;20022;-77
2021/11/21 08:53:18;;;;;;;63.92;18.30;;;;;;;7.65;100.00;101283.13;5194431;28;20026;-77
2021/11/21 08:55:49;;;;;;;53.53;19.10;;;;;;;7.69;100.00;101287.22;5193940;28;20573;-77
2021/11/21 08:58:19;;;;;;;56.83;19.33;;;;;;;7.66;100.00;101284.81;5193374;28;20322;-77
2021/11/21 09:00:51;;;;;;;58.58;19.33;;;;;;;7.66;100.00;101290.16;5194823;28;20036;-77
2021/11/21 09:03:22;;;;;;;67.72;21.60;;;;;;;7.71;100.00;101287.09;5192448;28;20087;-78
2021/11/21 09:05:52;;;;;;;59.05;21.00;;;;;;;7.75;100.00;101292.00;5194114;28;20746;-77
2021/11/21 09:08:25;;;;;;;59.80;19.17;;;;;;;7.84;100.00;101300.19;5195482;28;20041;-77
2021/11/21 09:10:56;;;;;;;58.83;22.23;;;;;;;7.93;100.00;101304.69;5193932;28;20358;-78
2021/11/21 09:13:28;;;;;;;56.03;18.45;;;;;;;8.05;100.00;101314.28;5187386;28;20026;-77
2021/11/21 09:15:59;;;;;;;28.63;10.70;;;;;;;8.00;100.00;101317.38;5193854;28;20026;-78
2021/11/21 09:18:29;;;;;;;23.67;8.85;;;;;;;7.79;100.00;101317.47;5194693;28;20029;-78
2021/11/21 09:21:00;;;;;;;20.95;7.78;;;;;;;7.67;100.00;101318.53;5192492;28;20018;-79
2021/11/21 09:23:31;;;;;;;16.17;6.57;;;;;;;7.57;100.00;101320.34;5192903;28;20057;-78
2021/11/21 09:26:01;;;;;;;24.58;7.47;;;;;;;7.46;100.00;101320.44;5193023;28;20030;-78
2021/11/21 09:28:32;;;;;;;14.63;5.82;;;;;;;7.42;100.00;101316.34;5193632;28;20029;-79
2021/11/21 09:31:02;;;;;;;16.02;6.13;;;;;;;7.32;100.00;101324.31;5192301;28;20455;-78
2021/11/21 09:33:33;;;;;;;18.48;5.72;;;;;;;7.34;100.00;101324.19;5196189;28;20037;-78
2021/11/21 09:36:05;;;;;;;17.27;5.47;;;;;;;7.35;100.00;101334.75;5195081;28;20093;-78
2021/11/21 09:38:36;;;;;;;16.15;5.57;;;;;;;7.35;100.00;101331.22;5186526;28;20085;-78
2021/11/21 09:41:07;;;;;;;16.63;5.00;;;;;;;7.40;100.00;101337.84;5187084;28;20034;-78
2021/11/21 09:43:37;;;;;;;16.60;5.20;;;;;;;7.38;100.00;101334.47;5176790;28;20030;-77
2021/11/21 09:46:10;;;;;;;16.00;5.53;;;;;;;7.49;100.00;101341.56;5165445;28;20149;-78
2021/11/21 09:48:40;;;;;;;18.80;5.03;;;;;;;7.46;100.00;101337.31;5167672;28;20233;-78
2021/11/21 09:51:11;;;;;;;18.48;5.95;;;;;;;7.55;100.00;101337.50;5165674;28;20191;-78
2021/11/21 09:53:42;;;;;;;15.45;5.88;;;;;;;7.56;100.00;101336.50;5197597;28;20022;-78
2021/11/21 09:56:16;;;;;;;17.05;5.45;;;;;;;7.63;100.00;101337.66;5175837;28;20042;-78
2021/11/21 09:58:47;;;;;;;22.95;6.70;;;;;;;7.71;100.00;101344.00;5172277;28;20474;-78
2021/11/21 10:01:39;;;;;;;20.95;6.55;;;;;;;7.74;100.00;101345.56;5172349;28;20033;-78
2021/11/21 10:04:12;;;;;;;16.55;6.35;;;;;;;7.79;100.00;101352.19;5184591;28;20064;-78
2021/11/21 10:06:49;;;;;;;15.35;5.72;;;;;;;7.78;100.00;101346.97;5183608;28;20030;-78
2021/11/21 10:09:20;;;;;;;23.40;6.28;;;;;;;7.77;100.00;101345.28;5176132;28;20029;-78
2021/11/21 10:12:04;;;;;;;14.80;5.60;;;;;;;7.78;100.00;101347.84;5165807;28;20026;-78
2021/11/21 10:15:04;;;;;;;14.77;4.60;;;;;;;7.83;100.00;101357.25;5177371;28;20022;-78
2021/11/21 10:17:37;;;;;;;24.08;6.03;;;;;;;7.85;100.00;101360.66;5186518;28;20076;-78
2021/11/21 10:20:08;;;;;;;17.55;4.80;;;;;;;7.86;100.00;101362.34;5185411;28;20043;-78
2021/11/21 10:22:50;;;;;;;17.92;5.10;;;;;;;7.89;100.00;101359.41;5175221;28;20452;-78
2021/11/21 10:25:49;;;;;;;14.80;5.70;;;;;;;7.95;100.00;101354.34;5185732;28;20030;-78
2021/11/21 10:28:24;;;;;;;18.23;5.78;;;;;;;7.99;100.00;101363.78;5187205;28;20034;-78
2021/11/21 10:30:57;;;;;;;15.57;4.70;;;;;;;7.96;100.00;101350.69;5187746;28;20037;-78
2021/11/21 10:33:45;;;;;;;15.15;4.75;;;;;;;7.93;100.00;101353.66;5188337;28;20695;-78
2021/11/21 10:36:17;;;;;;;8.48;3.67;;;;;;;7.99;100.00;101346.91;5186240;28;20033;-79
2021/11/21 10:38:52;;;;;;;15.48;4.60;;;;;;;8.04;100.00;101344.66;5188430;28;20053;-78
2021/11/21 10:41:25;;;;;;;12.50;4.13;;;;;;;8.03;100.00;101348.31;5187848;28;20195;-78
2021/11/21 10:44:02;;;;;;;12.55;4.70;;;;;;;8.04;100.00;101345.50;5188474;28;20077;-78
2021/11/21 10:46:43;;;;;;;15.75;4.80;;;;;;;8.05;100.00;101346.34;5187920;28;20262;-78
2021/11/21 10:49:33;;;;;;;16.75;5.88;;;;;;;8.14;100.00;101348.22;5188453;28;20540;-78
2021/11/21 10:52:08;;;;;;;13.35;5.70;;;;;;;8.15;100.00;101339.19;5188601;28;20254;-78
2021/11/21 10:54:42;;;;;;;17.08;5.68;;;;;;;8.12;100.00;101339.47;5189110;28;20022;-78
2021/11/21 10:57:17;;;;;;;14.88;5.20;;;;;;;8.20;100.00;101341.47;5186774;28;20408;-78
2021/11/21 10:59:51;;;;;;;11.77;4.93;;;;;;;8.26;100.00;101335.56;5187451;28;20065;-79
2021/11/21 11:02:28;;;;;;;14.77;4.38;;;;;;;8.30;100.00;101342.31;5188192;28;20778;-78
2021/11/21 11:05:18;;;;;;;20.08;5.10;;;;;;;8.40;100.00;101347.69;5187168;28;20026;-78
2021/11/21 11:07:52;;;;;;;20.20;5.07;;;;;;;8.39;100.00;101341.50;5178288;28;20464;-78
2021/11/21 11:10:27;;;;;;;16.17;4.53;;;;;;;8.47;100.00;101338.97;5184306;28;20401;-78
2021/11/21 11:13:01;;;;;;;16.85;5.07;;;;;;;8.53;100.00;101337.56;5182959;28;20044;-79
2021/11/21 11:15:35;;;;;;;22.38;6.10;;;;;;;8.50;100.00;101341.38;5184314;28;20551;-78
2021/11/21 11:18:10;;;;;;;23.83;5.88;;;;;;;8.48;100.00;101345.16;5186942;28;20032;-78
2021/11/21 11:20:46;;;;;;;12.05;4.53;;;;;;;8.48;100.00;101346.03;5187061;28;20045;-78
2021/11/21 11:23:20;;;;;;;11.27;4.20;;;;;;;8.48;100.00;101343.34;5186219;28;20030;-78
2021/11/21 11:25:53;;;;;;;11.18;3.58;;;;;;;8.43;100.00;101345.56;5186723;28;20026;-78
2021/11/21 11:28:28;;;;;;;20.90;4.93;;;;;;;8.43;100.00;101345.56;5184813;28;20021;-78
2021/11/21 11:31:01;;;;;;;11.20;4.07;;;;;;;8.40;100.00;101350.38;5183256;28;20026;-78